Time;durP1;ratioP1;P1;durP2;ratioP2;P2;SDS_P1;SDS_P2;PMS_P1;PMS_P2;Temp;Humidity;BMP_temperature;BMP_pressure;BME280_temperature;BME280_humidity;BME280_pressure;Samples;Min_cycle;Max_cycle;Signal;HPM_P1;HPM_P2
2022/09/30 00:01:03;;;;;;;16.37;11.10;;;;;;;6.18;77.97;100640.31;1669710;83;21139;-89
2022/09/30 00:03:31;;;;;;;16.05;11.90;;;;;;;6.14;77.87;100639.30;1695529;84;21093;-88
2022/09/30 00:05:59;;;;;;;16.05;11.18;;;;;;;6.08;77.88;100638.14;1675484;84;22570;-87
2022/09/30 00:08:28;;;;;;;16.70;12.50;;;;;;;6.08;77.97;100642.06;1647627;86;21645;-83
2022/09/30 00:11:12;;;;;;;19.00;12.25;;;;;;;6.08;78.11;100646.89;1695659;84;21072;-83
2022/09/30 00:13:39;;;;;;;15.58;10.68;;;;;;;6.10;78.21;100652.16;1646878;86;21118;-87
2022/09/30 00:16:06;;;;;;;18.85;11.80;;;;;;;6.10;78.22;100650.84;1678375;85;21635;-84
2022/09/30 00:18:33;;;;;;;19.17;11.57;;;;;;;6.12;78.35;100649.19;1626113;85;22437;-84
2022/09/30 00:21:00;;;;;;;16.48;11.20;;;;;;;6.11;78.35;100648.30;1666536;85;21096;-84
2022/09/30 00:23:28;;;;;;;17.77;11.53;;;;;;;6.10;78.25;100645.62;1716728;83;21046;-83
2022/09/30 00:26:01;;;;;;;14.68;11.22;;;;;;;6.09;78.22;100653.00;1695336;84;21441;-87
2022/09/30 00:28:28;;;;;;;16.05;11.55;;;;;;;6.06;78.22;100655.05;1660524;84;21038;-87
2022/09/30 00:31:05;;;;;;;17.90;11.10;;;;;;;6.06;78.25;100652.86;1690676;84;21611;-83
2022/09/30 00:33:32;;;;;;;14.53;11.80;;;;;;;6.06;78.23;100658.09;1675534;83;21095;-83
2022/09/30 00:35:59;;;;;;;16.25;12.50;;;;;;;6.02;78.23;100662.30;1660179;84;21147;-87
2022/09/30 00:38:26;;;;;;;16.73;11.43;;;;;;;6.03;78.27;100669.32;1635655;85;21094;-82
2022/09/30 00:40:55;;;;;;;13.85;10.32;;;;;;;6.03;78.33;100668.89;1691330;84;21090;-83
2022/09/30 00:43:45;;;;;;;14.78;10.00;;;;;;;6.06;78.32;100671.16;1709903;83;21956;-88
2022/09/30 00:46:23;;;;;;;13.32;10.05;;;;;;;6.04;78.31;100672.39;1689736;83;21074;-83
2022/09/30 00:48:52;;;;;;;15.80;10.43;;;;;;;6.05;78.33;100672.00;1715237;83;21098;-90
2022/09/30 00:51:25;;;;;;;13.58;10.65;;;;;;;5.99;78.32;100669.60;1703525;83;21074;-83
2022/09/30 00:53:55;;;;;;;13.40;10.15;;;;;;;5.97;78.33;100663.42;1690855;83;21118;-87
2022/09/30 00:56:27;;;;;;;13.25;9.50;;;;;;;5.95;78.23;100670.30;1679266;83;22614;-87
2022/09/30 00:59:11;;;;;;;16.10;9.30;;;;;;;5.92;78.25;100671.44;1656785;86;21621;-84
2022/09/30 01:01:39;;;;;;;14.63;9.95;;;;;;;5.89;78.34;100674.33;1670339;84;21067;-87
2022/09/30 01:04:13;;;;;;;11.90;10.40;;;;;;;5.88;78.41;100682.59;1669348;84;21541;-84
2022/09/30 01:06:41;;;;;;;13.88;10.75;;;;;;;5.86;78.40;100684.25;1661240;84;21058;-84
2022/09/30 01:09:08;;;;;;;13.62;10.30;;;;;;;5.81;78.42;100687.95;1660316;86;21807;-84
2022/09/30 01:11:38;;;;;;;10.93;9.45;;;;;;;5.80;78.47;100691.80;1664792;85;21556;-86
2022/09/30 01:14:15;;;;;;;15.13;10.03;;;;;;;5.77;78.52;100692.56;1669425;85;21102;-87
2022/09/30 01:17:02;;;;;;;13.58;10.23;;;;;;;5.75;78.54;100695.95;1676437;85;21685;-84
2022/09/30 01:19:47;;;;;;;12.63;10.30;;;;;;;5.71;78.50;100704.06;1658062;85;21113;-83
2022/09/30 01:22:28;;;;;;;14.03;9.60;;;;;;;5.67;78.57;100709.06;1648336;87;21813;-83
2022/09/30 01:25:31;;;;;;;15.45;10.08;;;;;;;5.65;78.69;100713.83;1649150;86;21055;-87
2022/09/30 01:28:42;;;;;;;14.00;8.93;;;;;;;5.65;78.74;100711.22;1663125;85;21163;-88
2022/09/30 01:31:29;;;;;;;16.10;10.40;;;;;;;5.65;78.74;100711.22;1659269;85;21178;-84
2022/09/30 01:34:04;;;;;;;14.55;10.50;;;;;;;5.64;78.92;100711.14;1672450;85;21603;-87
2022/09/30 01:37:12;;;;;;;16.37;11.03;;;;;;;5.63;78.97;100705.42;1684058;85;21763;-83
2022/09/30 01:39:49;;;;;;;19.35;10.40;;;;;;;5.65;79.18;100695.97;1666644;83;21051;-87
2022/09/30 01:42:41;;;;;;;13.38;10.03;;;;;;;5.68;79.38;100706.53;1716419;83;21083;-89
2022/09/30 01:45:36;;;;;;;15.58;10.90;;;;;;;5.72;79.39;100704.95;1715727;82;21086;-88
2022/09/30 01:48:28;;;;;;;14.55;10.95;;;;;;;5.75;79.39;100700.75;1716650;83;21070;-83
2022/09/30 01:50:58;;;;;;;14.15;10.65;;;;;;;5.76;79.36;100704.25;1715202;83;21821;-82
2022/09/30 01:53:32;;;;;;;17.75;10.98;;;;;;;5.77;79.46;100703.44;1714420;83;21133;-88
2022/09/30 01:56:07;;;;;;;13.48;10.90;;;;;;;5.78;79.55;100711.34;1712281;83;21110;-85
2022/09/30 01:58:55;;;;;;;14.47;11.20;;;;;;;5.81;79.62;100711.45;1716542;83;21054;-88
2022/09/30 02:01:56;;;;;;;14.65;11.00;;;;;;;5.85;79.64;100710.76;1709745;83;21095;-88
2022/09/30 02:04:36;;;;;;;16.87;10.55;;;;;;;5.89;79.76;100710.48;1686116;84;21803;-88
2022/09/30 02:07:08;;;;;;;12.68;10.68;;;;;;;5.92;79.75;100701.48;1699189;83;21110;-84
2022/09/30 02:09:42;;;;;;;15.30;10.45;;;;;;;5.94;79.70;100698.94;1736968;82;21663;-84
2022/09/30 02:12:12;;;;;;;13.38;10.95;;;;;;;5.95;79.69;100701.66;1729320;82;21031;-87
2022/09/30 02:14:45;;;;;;;14.38;11.50;;;;;;;5.96;79.74;100696.89;1742759;82;21082;-83
2022/09/30 02:17:30;;;;;;;16.07;10.90;;;;;;;5.97;79.67;100693.89;1694149;82;22591;-88
2022/09/30 02:20:05;;;;;;;15.20;11.43;;;;;;;5.96;79.59;100690.36;1696555;82;21082;-87
2022/09/30 02:22:49;;;;;;;12.60;10.50;;;;;;;5.96;79.56;100696.89;1719912;82;21110;-87
2022/09/30 02:25:35;;;;;;;13.90;10.82;;;;;;;5.94;79.56;100695.91;1690124;84;21118;-84
2022/09/30 02:28:11;;;;;;;16.77;11.35;;;;;;;5.96;79.57;100698.63;1693906;83;21110;-88
2022/09/30 02:30:42;;;;;;;16.20;10.90;;;;;;;5.96;79.65;100702.12;1695089;84;22721;-88
2022/09/30 02:33:14;;;;;;;14.93;10.88;;;;;;;5.96;79.68;100700.81;1694433;84;21059;-88
2022/09/30 02:35:52;;;;;;;12.53;10.45;;;;;;;5.99;79.73;100704.87;1693901;84;21078;-87
2022/09/30 02:38:24;;;;;;;22.35;10.80;;;;;;;5.97;79.64;100703.03;1693029;83;21047;-87
2022/09/30 02:41:20;;;;;;;15.85;10.45;;;;;;;5.97;79.70;100709.14;1666873;86;21608;-87
2022/09/30 02:43:48;;;;;;;17.23;11.05;;;;;;;5.97;79.73;100710.88;1667064;86;21814;-87
2022/09/30 02:46:32;;;;;;;17.07;10.68;;;;;;;5.94;79.66;100712.00;1680068;84;21118;-83
2022/09/30 02:49:29;;;;;;;15.30;11.40;;;;;;;5.92;79.70;100713.23;1689285;83;21078;-87
2022/09/30 02:52:07;;;;;;;14.03;11.28;;;;;;;5.92;79.75;100715.84;1643977;86;21104;-88
2022/09/30 02:54:51;;;;;;;12.03;10.30;;;;;;;5.92;79.83;100723.69;1654606;85;22164;-83
2022/09/30 02:58:02;;;;;;;14.43;9.98;;;;;;;5.93;79.81;100721.57;1649694;85;21608;-87
2022/09/30 03:00:28;;;;;;;13.65;10.50;;;;;;;5.92;79.80;100721.50;1638732;85;21043;-88
2022/09/30 03:03:06;;;;;;;14.53;10.58;;;;;;;5.90;79.82;100724.03;1626955;86;21117;-82
2022/09/30 03:05:33;;;;;;;13.22;10.53;;;;;;;5.88;79.78;100730.92;1644590;86;21102;-88
2022/09/30 03:08:00;;;;;;;14.10;11.28;;;;;;;5.86;79.80;100726.05;1634636;85;21098;-88
2022/09/30 03:10:28;;;;;;;16.85;11.00;;;;;;;5.85;79.74;100726.86;1649341;86;21760;-88
2022/09/30 03:13:23;;;;;;;17.75;9.85;;;;;;;5.81;79.67;100724.52;1656299;86;21075;-88
2022/09/30 03:16:22;;;;;;;14.50;9.85;;;;;;;5.79;79.66;100737.05;1640937;86;21125;-88
2022/09/30 03:19:00;;;;;;;13.48;9.60;;;;;;;5.76;79.64;100744.73;1628134;87;21139;-83
2022/09/30 03:22:06;;;;;;;16.05;10.30;;;;;;;5.73;79.64;100745.92;1644579;85;21078;-87
2022/09/30 03:25:08;;;;;;;13.75;9.55;;;;;;;5.70;79.65;100743.16;1655830;86;22646;-87
2022/09/30 03:27:55;;;;;;;11.80;9.23;;;;;;;5.69;79.69;100746.59;1615352;86;21333;-88
2022/09/30 03:30:29;;;;;;;13.88;9.80;;;;;;;5.67;79.74;100749.55;1645116;86;21632;-87
2022/09/30 03:33:13;;;;;;;12.63;9.23;;;;;;;5.69;79.86;100753.11;1623511;87;21081;-88
2022/09/30 03:35:52;;;;;;;12.20;9.78;;;;;;;5.65;79.79;100749.08;1640390;87;21627;-87
2022/09/30 03:38:33;;;;;;;10.75;9.35;;;;;;;5.62;79.75;100744.12;1633386;87;21764;-83
2022/09/30 03:41:27;;;;;;;15.60;8.88;;;;;;;5.61;79.86;100751.47;1639902;87;21588;-83
2022/09/30 03:44:06;;;;;;;12.70;9.15;;;;;;;5.62;79.87;100755.45;1639317;87;21095;-87
2022/09/30 03:46:50;;;;;;;13.65;10.00;;;;;;;5.61;79.92;100753.69;1638908;86;21656;-88
2022/09/30 03:49:31;;;;;;;12.68;9.75;;;;;;;5.61;79.93;100757.61;1625638;86;21103;-84
2022/09/30 03:52:13;;;;;;;13.62;9.68;;;;;;;5.61;79.89;100764.52;1639230;87;22179;-88
2022/09/30 03:54:53;;;;;;;14.25;10.05;;;;;;;5.62;80.01;100761.10;1639749;87;21110;-89
2022/09/30 03:57:21;;;;;;;15.63;10.35;;;;;;;5.61;79.99;100765.83;1639550;87;21086;-89
2022/09/30 03:59:49;;;;;;;12.65;10.05;;;;;;;5.62;79.95;100769.82;1639553;87;21076;-88
2022/09/30 04:02:16;;;;;;;17.67;10.38;;;;;;;5.58;79.83;100769.63;1639739;87;21110;-83
2022/09/30 04:04:43;;;;;;;14.80;10.53;;;;;;;5.55;79.89;100769.48;1615637;86;21776;-88
2022/09/30 04:07:10;;;;;;;15.23;11.20;;;;;;;5.55;79.98;100773.39;1626056;86;21552;-84
2022/09/30 04:09:38;;;;;;;13.48;10.68;;;;;;;5.55;80.09;100772.97;1640201;86;21077;-92
2022/09/30 04:12:05;;;;;;;12.95;10.80;;;;;;;5.56;80.21;100779.11;1632907;87;21129;-85
2022/09/30 04:14:32;;;;;;;15.05;9.98;;;;;;;5.59;80.27;100781.45;1653254;86;21809;-91
2022/09/30 04:16:59;;;;;;;16.97;11.12;;;;;;;5.61;80.30;100790.64;1647059;86;22594;-90
2022/09/30 04:19:26;;;;;;;14.45;10.63;;;;;;;5.65;80.37;100796.09;1638853;87;21328;-91
2022/09/30 04:21:53;;;;;;;12.55;10.70;;;;;;;5.66;80.31;100796.97;1634595;87;21087;-89
2022/09/30 04:24:21;;;;;;;15.43;11.10;;;;;;;5.67;80.29;100793.55;1631980;87;22178;-82
2022/09/30 04:26:56;;;;;;;14.75;10.98;;;;;;;5.68;80.35;100799.23;1639247;87;21129;-89
2022/09/30 04:29:23;;;;;;;14.93;11.40;;;;;;;5.72;80.42;100805.08;1675210;84;21866;-83
2022/09/30 04:31:51;;;;;;;16.40;11.38;;;;;;;5.74;80.46;100807.34;1663475;85;21587;-84
2022/09/30 04:34:22;;;;;;;13.58;11.63;;;;;;;5.77;80.47;100811.83;1745338;82;21078;-85
2022/09/30 04:36:49;;;;;;;13.30;11.43;;;;;;;5.81;80.52;100818.97;1705439;82;21071;-87
2022/09/30 04:39:16;;;;;;;15.90;11.60;;;;;;;5.82;80.55;100817.75;1707784;82;21604;-83
2022/09/30 04:41:43;;;;;;;16.52;11.65;;;;;;;5.85;80.62;100813.94;1708522;82;22987;-91
2022/09/30 04:44:10;;;;;;;15.08;11.60;;;;;;;5.88;80.63;100815.81;1667311;83;21086;-90
2022/09/30 04:46:36;;;;;;;15.45;11.88;;;;;;;5.88;80.54;100814.52;1732825;82;21340;-87
2022/09/30 04:49:04;;;;;;;16.07;11.97;;;;;;;5.89;80.49;100819.31;1716932;82;21075;-81
2022/09/30 04:51:31;;;;;;;14.58;11.65;;;;;;;5.90;80.53;100823.73;1719723;82;21612;-81
2022/09/30 04:53:58;;;;;;;18.48;12.58;;;;;;;5.91;80.56;100825.11;1709827;82;22548;-82
2022/09/30 04:56:25;;;;;;;15.65;11.28;;;;;;;5.93;80.53;100823.46;1728420;82;21344;-85
2022/09/30 04:58:53;;;;;;;15.03;11.83;;;;;;;5.95;80.49;100824.81;1722509;82;21584;-85
2022/09/30 05:01:20;;;;;;;15.45;12.10;;;;;;;5.95;80.48;100827.06;1718674;82;21146;-82
2022/09/30 05:03:47;;;;;;;13.40;11.12;;;;;;;5.97;80.44;100842.39;1716506;82;21134;-88
2022/09/30 05:06:14;;;;;;;16.20;11.45;;;;;;;6.02;80.49;100833.44;1720587;82;21929;-90
2022/09/30 05:08:44;;;;;;;18.67;12.47;;;;;;;6.06;80.59;100828.83;1724503;82;21054;-90
2022/09/30 05:11:16;;;;;;;15.23;11.15;;;;;;;6.09;80.68;100821.55;1736133;82;21094;-93
2022/09/30 05:13:43;;;;;;;17.80;12.20;;;;;;;6.22;80.68;100832.61;1741659;82;21600;-83
2022/09/30 05:16:10;;;;;;;23.80;12.25;;;;;;;6.31;80.75;100828.62;1725985;81;22219;-82
2022/09/30 05:18:38;;;;;;;15.68;12.13;;;;;;;6.42;80.78;100826.95;1712546;82;21814;-82
2022/09/30 05:21:18;;;;;;;21.68;12.95;;;;;;;6.52;80.68;100832.14;1690428;82;21102;-84
2022/09/30 05:24:02;;;;;;;18.37;12.43;;;;;;;6.58;80.59;100827.59;1694713;83;21529;-82
2022/09/30 05:26:31;;;;;;;18.70;12.75;;;;;;;6.65;80.47;100827.02;1714114;83;21094;-90
2022/09/30 05:28:58;;;;;;;17.92;11.95;;;;;;;6.71;80.36;100823.34;1720165;83;21047;-89
2022/09/30 05:31:25;;;;;;;20.70;12.18;;;;;;;6.80;80.46;100820.23;1723083;82;22518;-82
2022/09/30 05:33:56;;;;;;;15.38;11.68;;;;;;;6.89;80.43;100824.54;1722817;83;21027;-89
2022/09/30 05:36:22;;;;;;;19.05;12.40;;;;;;;6.98;80.39;100829.23;1718806;82;21139;-89
2022/09/30 05:38:53;;;;;;;21.10;12.53;;;;;;;7.08;80.39;100828.79;1733232;81;21076;-82
2022/09/30 05:41:20;;;;;;;17.48;11.57;;;;;;;7.18;80.44;100829.63;1725165;81;21097;-89
2022/09/30 05:43:46;;;;;;;15.78;11.40;;;;;;;7.31;80.36;100834.94;1706362;81;22424;-82
2022/09/30 05:46:18;;;;;;;14.35;11.93;;;;;;;7.39;80.29;100838.77;1716275;81;21162;-89
2022/09/30 05:48:45;;;;;;;14.73;11.08;;;;;;;7.48;80.22;100850.00;1707963;83;21142;-82
2022/09/30 05:51:12;;;;;;;14.75;11.83;;;;;;;7.58;80.20;100853.86;1705178;81;21133;-89
2022/09/30 05:53:40;;;;;;;16.62;11.48;;;;;;;7.69;80.19;100864.77;1707524;83;21066;-82
2022/09/30 05:56:07;;;;;;;22.32;13.25;;;;;;;7.81;80.07;100863.94;1715136;83;21767;-82
2022/09/30 05:58:34;;;;;;;15.95;13.30;;;;;;;7.85;79.81;100868.45;1722856;82;21066;-82
2022/09/30 06:01:11;;;;;;;16.70;14.40;;;;;;;7.89;79.59;100866.84;1722718;83;21100;-89
2022/09/30 06:03:38;;;;;;;17.80;13.68;;;;;;;7.97;79.64;100862.77;1722612;83;21093;-82
2022/09/30 06:06:06;;;;;;;40.12;14.40;;;;;;;8.09;79.60;100860.62;1722984;83;21093;-89
2022/09/30 06:08:32;;;;;;;43.92;15.65;;;;;;;8.23;79.67;100856.29;1680715;83;21859;-82
2022/09/30 06:11:00;;;;;;;24.60;13.05;;;;;;;8.40;79.67;100860.83;1651181;85;21092;-89
2022/09/30 06:13:27;;;;;;;23.42;13.20;;;;;;;8.54;79.51;100864.88;1689572;83;21125;-82
2022/09/30 06:15:57;;;;;;;17.60;13.28;;;;;;;8.69;79.59;100868.02;1674099;83;21074;-82
2022/09/30 06:18:26;;;;;;;16.45;12.45;;;;;;;8.86;79.43;100866.37;1662466;83;21111;-89
2022/09/30 06:20:58;;;;;;;21.17;12.03;;;;;;;9.02;79.41;100869.98;1662438;83;21850;-89
2022/09/30 06:23:25;;;;;;;15.43;12.07;;;;;;;9.22;79.37;100868.45;1657457;83;21127;-82
2022/09/30 06:25:53;;;;;;;16.27;11.78;;;;;;;9.42;79.45;100876.55;1675808;84;21074;-89
2022/09/30 06:28:20;;;;;;;16.40;12.05;;;;;;;9.66;79.41;100883.40;1691153;84;21083;-82
2022/09/30 06:30:46;;;;;;;13.98;11.28;;;;;;;9.89;79.40;100881.05;1684523;83;21082;-82
2022/09/30 06:33:13;;;;;;;19.45;12.45;;;;;;;10.10;79.25;100885.17;1667537;83;21227;-82
2022/09/30 06:35:41;;;;;;;15.85;10.75;;;;;;;10.29;79.07;100886.15;1686467;83;21062;-89
2022/09/30 06:38:09;;;;;;;15.05;11.35;;;;;;;10.38;78.68;100895.17;1667211;83;21094;-88
2022/09/30 06:40:36;;;;;;;14.00;11.75;;;;;;;10.46;78.44;100903.76;1708827;83;21015;-82
2022/09/30 06:43:03;;;;;;;14.13;11.50;;;;;;;10.50;78.29;100900.79;1668466;83;21062;-82
2022/09/30 06:45:34;;;;;;;16.10;11.18;;;;;;;10.57;78.20;100908.45;1713004;83;22562;-83
2022/09/30 06:48:03;;;;;;;13.30;10.80;;;;;;;10.58;78.00;100911.09;1709875;83;22284;-82
2022/09/30 06:50:31;;;;;;;14.20;10.65;;;;;;;10.57;77.78;100917.66;1693936;83;21106;-82
2022/09/30 06:53:05;;;;;;;13.18;10.18;;;;;;;10.56;77.75;100913.23;1695836;84;21594;-89
2022/09/30 06:55:35;;;;;;;11.90;10.55;;;;;;;10.57;77.68;100915.91;1692969;83;21062;-83
2022/09/30 06:58:01;;;;;;;12.95;10.50;;;;;;;10.53;77.47;100914.45;1667456;83;21822;-82
2022/09/30 07:00:28;;;;;;;13.75;9.75;;;;;;;10.45;77.40;100915.12;1681549;84;21088;-89
2022/09/30 07:02:55;;;;;;;16.70;10.98;;;;;;;10.41;77.44;100912.38;1675484;83;21082;-82
2022/09/30 07:05:24;;;;;;;14.55;11.48;;;;;;;10.36;77.44;100908.71;1694948;83;21090;-89
2022/09/30 07:07:52;;;;;;;15.83;11.33;;;;;;;10.27;77.45;100893.55;1673470;83;21564;-82
2022/09/30 07:10:19;;;;;;;15.43;10.98;;;;;;;10.30;77.47;100908.08;1665734;83;22590;-82
2022/09/30 07:12:54;;;;;;;15.40;10.40;;;;;;;10.28;77.60;100909.78;1685832;83;21938;-82
2022/09/30 07:15:22;;;;;;;13.75;10.30;;;;;;;10.27;77.59;100914.59;1684821;83;21039;-82
2022/09/30 07:17:55;;;;;;;15.30;10.88;;;;;;;10.24;77.43;100918.00;1685098;84;21094;-82
2022/09/30 07:20:23;;;;;;;17.75;11.12;;;;;;;10.25;77.62;100929.01;1656694;84;21077;-82
2022/09/30 07:22:53;;;;;;;17.12;10.25;;;;;;;10.30;77.65;100936.66;1678684;84;21765;-82
2022/09/30 07:25:19;;;;;;;16.42;10.70;;;;;;;10.35;77.74;100931.94;1672234;84;21085;-82
2022/09/30 07:27:49;;;;;;;14.93;10.98;;;;;;;10.42;77.79;100939.17;1672595;85;21683;-82
2022/09/30 07:30:17;;;;;;;16.00;11.35;;;;;;;10.52;77.83;100937.69;1656534;85;21614;-82
2022/09/30 07:32:44;;;;;;;21.35;10.72;;;;;;;10.63;77.84;100948.97;1654145;85;21175;-89
2022/09/30 07:35:12;;;;;;;13.35;10.80;;;;;;;10.77;77.96;100951.97;1655615;85;21881;-89
2022/09/30 07:37:39;;;;;;;16.35;11.22;;;;;;;10.93;78.05;100955.05;1654356;85;21566;-89
2022/09/30 07:40:19;;;;;;;15.30;11.88;;;;;;;11.08;78.12;100953.70;1654124;85;21128;-82
2022/09/30 07:42:44;;;;;;;14.83;10.75;;;;;;;11.24;78.07;100954.08;1651409;85;21137;-82
2022/09/30 07:45:11;;;;;;;17.42;11.75;;;;;;;11.41;77.95;100961.09;1654129;85;21135;-82
2022/09/30 07:47:38;;;;;;;14.58;12.58;;;;;;;11.54;77.73;100959.66;1657625;86;23626;-89
2022/09/30 07:50:08;;;;;;;15.40;12.70;;;;;;;11.67;77.64;100965.69;1657125;85;21112;-82
2022/09/30 07:52:34;;;;;;;16.70;12.63;;;;;;;11.76;77.53;100960.64;1630324;86;21124;-82
2022/09/30 07:55:01;;;;;;;16.40;13.55;;;;;;;11.83;77.34;100967.84;1655296;86;21104;-82
2022/09/30 07:57:28;;;;;;;16.15;11.78;;;;;;;11.87;77.26;100966.17;1630934;86;21112;-89
2022/09/30 07:59:55;;;;;;;19.45;12.70;;;;;;;11.90;77.09;100971.97;1645807;86;21768;-82
2022/09/30 08:02:23;;;;;;;16.17;12.90;;;;;;;11.95;77.23;100972.97;1647193;86;21102;-82
2022/09/30 08:04:50;;;;;;;12.25;10.50;;;;;;;12.00;77.17;100972.22;1654459;86;21081;-82
2022/09/30 08:07:18;;;;;;;11.60;9.63;;;;;;;12.05;77.05;100969.70;1655531;86;21104;-88
2022/09/30 08:09:45;;;;;;;9.73;8.73;;;;;;;12.09;76.95;100976.83;1655610;86;21641;-89
2022/09/30 08:12:12;;;;;;;11.53;7.62;;;;;;;12.10;76.63;100980.34;1655589;86;21750;-89
2022/09/30 08:14:39;;;;;;;10.70;7.67;;;;;;;12.15;76.62;100978.70;1655192;85;21571;-82
2022/09/30 08:17:05;;;;;;;9.18;6.55;;;;;;;12.18;76.21;100974.80;1655262;85;21614;-82
2022/09/30 08:19:33;;;;;;;8.78;6.30;;;;;;;12.22;75.95;100973.59;1645640;85;21098;-82
2022/09/30 08:22:05;;;;;;;7.53;6.72;;;;;;;12.28;75.79;100970.20;1664451;84;21100;-82
2022/09/30 08:24:31;;;;;;;9.18;8.20;;;;;;;12.32;75.65;100965.87;1656667;86;21786;-82
2022/09/30 08:26:58;;;;;;;9.13;7.22;;;;;;;12.38;75.40;100968.20;1658524;86;21113;-82
2022/09/30 08:29:25;;;;;;;7.97;6.72;;;;;;;12.41;75.16;100965.64;1660472;86;21323;-89
2022/09/30 08:31:52;;;;;;;7.47;6.42;;;;;;;12.45;74.99;100968.80;1690971;83;21462;-82
2022/09/30 08:34:20;;;;;;;9.68;6.78;;;;;;;12.51;74.85;100976.39;1666954;83;21615;-88
2022/09/30 08:36:47;;;;;;;7.10;6.35;;;;;;;12.55;74.76;100974.27;1667401;83;21752;-82
2022/09/30 08:39:14;;;;;;;7.45;6.20;;;;;;;12.60;74.46;100975.27;1676467;83;21126;-82
2022/09/30 08:41:59;;;;;;;8.28;5.40;;;;;;;12.67;74.39;100976.26;1675802;83;21089;-82
2022/09/30 08:44:45;;;;;;;8.70;5.97;;;;;;;12.73;74.29;100977.28;1667387;83;21098;-82
2022/09/30 08:47:41;;;;;;;10.43;7.10;;;;;;;12.83;74.19;100983.63;1687097;83;21110;-83
2022/09/30 08:50:36;;;;;;;8.55;5.80;;;;;;;12.89;73.85;100988.14;1655495;86;22630;-83
2022/09/30 08:53:08;;;;;;;6.15;5.55;;;;;;;12.98;73.81;100993.17;1650043;86;21630;-82
2022/09/30 08:55:43;;;;;;;6.35;5.70;;;;;;;13.06;73.32;100991.98;1641600;86;21141;-82
2022/09/30 08:58:28;;;;;;;8.15;7.33;;;;;;;13.10;72.99;100997.81;1664281;84;21086;-89
2022/09/30 09:00:58;;;;;;;7.30;6.60;;;;;;;13.15;72.87;100998.77;1653357;85;21107;-89
2022/09/30 09:03:40;;;;;;;7.08;6.35;;;;;;;13.20;72.68;100999.75;1669228;84;21815;-89
2022/09/30 09:06:24;;;;;;;7.12;4.67;;;;;;;13.21;72.31;101002.87;1660002;85;21111;-90
2022/09/30 09:09:08;;;;;;;6.45;5.15;;;;;;;13.26;72.18;101005.58;1696219;84;21531;-89
2022/09/30 09:12:07;;;;;;;8.10;7.35;;;;;;;13.32;71.91;101000.87;1696150;84;27643;-82
2022/09/30 09:15:08;;;;;;;7.42;6.20;;;;;;;13.37;71.82;100996.13;1695823;84;21102;-82
2022/09/30 09:18:09;;;;;;;6.90;6.20;;;;;;;13.43;71.43;100993.13;1695697;84;21792;-82
2022/09/30 09:20:40;;;;;;;5.60;5.10;;;;;;;13.51;71.22;100999.43;1651501;86;21520;-82
2022/09/30 09:23:11;;;;;;;6.58;5.10;;;;;;;13.60;71.03;100993.86;1674622;83;21718;-82
2022/09/30 09:25:39;;;;;;;6.00;5.08;;;;;;;13.66;70.76;100994.39;1649856;84;21547;-82
2022/09/30 09:28:14;;;;;;;6.65;4.65;;;;;;;13.71;70.75;100996.69;1667935;83;21058;-82
2022/09/30 09:30:47;;;;;;;5.08;4.40;;;;;;;13.77;70.48;100998.54;1667693;84;21782;-82
2022/09/30 09:33:20;;;;;;;4.73;3.70;;;;;;;13.77;70.02;100994.13;1675309;85;21056;-89
2022/09/30 09:35:52;;;;;;;4.50;4.10;;;;;;;13.78;69.80;100994.59;1676578;84;21090;-89
2022/09/30 09:38:41;;;;;;;5.37;3.50;;;;;;;13.82;69.65;100998.63;1705811;82;21703;-89
2022/09/30 09:41:31;;;;;;;5.15;3.25;;;;;;;13.85;69.47;100995.59;1715340;83;21079;-83
2022/09/30 09:44:34;;;;;;;3.90;3.50;;;;;;;13.93;69.03;100997.03;1695973;82;21819;-89
2022/09/30 09:47:13;;;;;;;3.17;2.65;;;;;;;14.01;68.71;100999.35;1715186;83;21838;-83
2022/09/30 09:49:44;;;;;;;4.28;2.80;;;;;;;14.15;68.65;100996.89;1713925;83;21496;-83
2022/09/30 09:52:22;;;;;;;3.77;3.42;;;;;;;14.26;68.15;101001.03;1686307;82;21078;-83
2022/09/30 09:54:55;;;;;;;5.60;4.40;;;;;;;14.32;67.98;100999.78;1701315;83;21633;-83
2022/09/30 09:57:24;;;;;;;3.00;2.70;;;;;;;14.42;68.12;100993.75;1700039;83;21779;-83
2022/09/30 10:03:27;;;;;;;3.67;1.95;;;;;;;14.64;67.11;100991.39;1705372;83;21062;-90
2022/09/30 10:06:08;;;;;;;2.75;2.50;;;;;;;14.84;66.71;100991.64;1600579;88;21732;-89
2022/09/30 10:08:41;;;;;;;3.02;2.25;;;;;;;15.07;66.65;100990.14;1613487;87;21103;-83
2022/09/30 10:11:20;;;;;;;2.17;1.98;;;;;;;15.29;66.42;100991.22;1563368;89;21778;-83
2022/09/30 10:13:47;;;;;;;2.70;1.87;;;;;;;15.45;65.63;100991.39;1585004;89;21131;-82
2022/09/30 10:16:26;;;;;;;2.40;2.10;;;;;;;15.64;65.41;100988.00;1582258;90;21633;-82
2022/09/30 10:18:52;;;;;;;3.58;3.15;;;;;;;15.83;64.86;100976.23;1618020;88;21538;-82
2022/09/30 10:21:24;;;;;;;5.50;1.90;;;;;;;16.04;64.21;100982.12;1586164;88;21075;-91
2022/09/30 10:23:51;;;;;;;2.58;2.35;;;;;;;16.18;64.03;100973.80;1585453;89;22451;-91
2022/09/30 10:26:23;;;;;;;3.47;2.35;;;;;;;16.38;64.03;100973.00;1585065;90;21111;-84
2022/09/30 10:28:53;;;;;;;3.27;2.80;;;;;;;16.56;63.99;100978.41;1565594;89;21740;-91
2022/09/30 10:31:43;;;;;;;6.15;4.12;;;;;;;16.74;63.74;100974.03;1592979;89;21611;-91
2022/09/30 10:34:40;;;;;;;3.83;3.30;;;;;;;16.88;63.43;100979.87;1609840;87;21178;-91
2022/09/30 10:37:14;;;;;;;3.70;3.27;;;;;;;16.98;62.99;100981.22;1608871;87;22109;-83
2022/09/30 10:39:43;;;;;;;4.42;3.80;;;;;;;16.96;62.66;100969.70;1608855;87;21117;-89
2022/09/30 10:42:24;;;;;;;7.05;4.70;;;;;;;17.10;62.81;100977.28;1624104;86;21681;-83
2022/09/30 10:44:54;;;;;;;4.17;3.58;;;;;;;17.12;62.47;100972.84;1672407;85;21112;-89
2022/09/30 10:47:28;;;;;;;6.08;3.67;;;;;;;17.04;62.18;100982.56;1672191;85;21075;-90
2022/09/30 10:50:07;;;;;;;4.85;4.40;;;;;;;16.91;61.92;100974.98;1646693;85;21783;-82
2022/09/30 10:52:43;;;;;;;4.53;3.58;;;;;;;16.78;61.92;100983.78;1669572;84;21071;-90
2022/09/30 10:55:21;;;;;;;5.30;3.65;;;;;;;16.70;61.79;100985.09;1647436;85;21099;-83
2022/09/30 10:57:49;;;;;;;4.80;3.45;;;;;;;16.66;61.83;100985.52;1663099;85;21148;-90
2022/09/30 11:00:21;;;;;;;4.00;3.58;;;;;;;16.68;61.81;100989.52;1655382;85;21619;-83
2022/09/30 11:03:04;;;;;;;4.20;3.80;;;;;;;16.66;61.49;100984.64;1670489;84;22575;-91
2022/09/30 11:05:39;;;;;;;6.10;3.95;;;;;;;16.63;61.48;100988.60;1658612;85;21067;-82
2022/09/30 11:08:24;;;;;;;3.95;3.22;;;;;;;16.62;61.30;100977.54;1648187;84;21154;-86
2022/09/30 11:11:23;;;;;;;5.00;3.92;;;;;;;16.61;61.28;100978.41;1677321;84;21860;-82
2022/09/30 11:14:19;;;;;;;4.50;4.00;;;;;;;16.59;61.21;100979.76;1660545;84;21138;-82
2022/09/30 11:17:05;;;;;;;4.42;4.03;;;;;;;16.52;60.94;100972.19;1689119;84;22645;-82
2022/09/30 11:19:52;;;;;;;3.98;3.58;;;;;;;16.43;61.00;100980.11;1672629;85;21085;-89
2022/09/30 11:22:27;;;;;;;3.60;3.20;;;;;;;16.29;60.69;100979.15;1662089;84;21123;-82
2022/09/30 11:24:54;;;;;;;4.92;3.58;;;;;;;16.13;60.46;100984.83;1653936;86;21100;-90
2022/09/30 11:27:32;;;;;;;4.08;3.67;;;;;;;16.02;60.41;100985.20;1660449;86;21138;-91
2022/09/30 11:30:14;;;;;;;4.92;4.50;;;;;;;15.89;60.33;100983.78;1662386;86;22591;-90
2022/09/30 11:33:21;;;;;;;4.67;4.25;;;;;;;15.78;60.64;100984.14;1654937;85;21620;-90
2022/09/30 11:36:05;;;;;;;8.40;4.87;;;;;;;15.71;60.76;100989.83;1670408;85;21115;-89
2022/09/30 11:39:24;;;;;;;5.50;4.70;;;;;;;15.63;60.77;100991.52;1670367;85;21119;-90
2022/09/30 11:41:59;;;;;;;5.65;5.15;;;;;;;15.53;60.93;100987.02;1670771;85;21086;-89
2022/09/30 11:44:33;;;;;;;5.30;4.80;;;;;;;15.45;60.96;100988.28;1670344;85;21565;-90
2022/09/30 11:47:28;;;;;;;6.03;5.40;;;;;;;15.46;61.28;100988.72;1671627;83;21093;-90
2022/09/30 11:50:34;;;;;;;5.85;5.35;;;;;;;15.48;61.21;100986.97;1690901;83;21082;-90
2022/09/30 11:53:09;;;;;;;7.33;5.58;;;;;;;15.50;61.07;100981.27;1629802;87;21174;-82
2022/09/30 11:56:11;;;;;;;6.00;5.40;;;;;;;15.56;61.23;100989.72;1656739;85;21154;-85
2022/09/30 11:58:45;;;;;;;5.83;5.10;;;;;;;15.63;61.28;100990.19;1671280;84;21951;-90